sensor_id;sensor_type;location;lat;lon;timestamp;P1;durP1;ratioP1;P2;durP2;ratioP2
12348;SDS011;5974;42.710;27.258;2022-07-12T00:00:26;1.30;;;1.20;;
12348;SDS011;5974;42.710;27.258;2022-07-12T00:02:52;1.20;;;1.13;;
12348;SDS011;5974;42.710;27.258;2022-07-12T00:05:19;2.20;;;1.17;;
12348;SDS011;5974;42.710;27.258;2022-07-12T00:07:45;2.80;;;1.20;;
12348;SDS011;5974;42.710;27.258;2022-07-12T00:10:12;1.83;;;1.20;;
12348;SDS011;5974;42.710;27.258;2022-07-12T00:12:39;1.47;;;1.30;;
12348;SDS011;5974;42.710;27.258;2022-07-12T00:15:06;1.97;;;1.20;;
12348;SDS011;5974;42.710;27.258;2022-07-12T00:17:34;2.43;;;1.30;;
12348;SDS011;5974;42.710;27.258;2022-07-12T00:20:01;1.77;;;1.20;;
12348;SDS011;5974;42.710;27.258;2022-07-12T00:22:27;1.43;;;1.20;;
12348;SDS011;5974;42.710;27.258;2022-07-12T00:24:54;1.50;;;1.33;;
12348;SDS011;5974;42.710;27.258;2022-07-12T00:27:21;3.43;;;1.40;;
12348;SDS011;5974;42.710;27.258;2022-07-12T00:29:47;1.77;;;1.30;;
12348;SDS011;5974;42.710;27.258;2022-07-12T00:32:14;2.30;;;1.30;;
12348;SDS011;5974;42.710;27.258;2022-07-12T00:34:42;1.40;;;1.30;;
12348;SDS011;5974;42.710;27.258;2022-07-12T00:37:08;1.93;;;1.30;;
12348;SDS011;5974;42.710;27.258;2022-07-12T00:39:35;1.93;;;1.40;;
12348;SDS011;5974;42.710;27.258;2022-07-12T00:42:02;1.30;;;1.20;;
12348;SDS011;5974;42.710;27.258;2022-07-12T00:44:29;1.93;;;1.40;;
12348;SDS011;5974;42.710;27.258;2022-07-12T00:46:58;1.77;;;1.37;;
12348;SDS011;5974;42.710;27.258;2022-07-12T00:49:25;2.00;;;1.17;;
12348;SDS011;5974;42.710;27.258;2022-07-12T00:51:53;2.10;;;1.40;;
12348;SDS011;5974;42.710;27.258;2022-07-12T00:54:20;1.80;;;1.30;;
12348;SDS011;5974;42.710;27.258;2022-07-12T00:56:47;1.40;;;1.30;;
12348;SDS011;5974;42.710;27.258;2022-07-12T00:59:14;2.97;;;1.43;;
12348;SDS011;5974;42.710;27.258;2022-07-12T01:01:40;2.00;;;1.20;;
12348;SDS011;5974;42.710;27.258;2022-07-12T01:04:07;1.40;;;1.30;;
12348;SDS011;5974;42.710;27.258;2022-07-12T01:06:34;1.73;;;1.60;;
12348;SDS011;5974;42.710;27.258;2022-07-12T01:09:03;2.73;;;1.40;;
12348;SDS011;5974;42.710;27.258;2022-07-12T01:11:30;5.20;;;1.50;;
12348;SDS011;5974;42.710;27.258;2022-07-12T01:13:57;2.87;;;1.43;;
12348;SDS011;5974;42.710;27.258;2022-07-12T01:16:24;1.47;;;1.33;;
12348;SDS011;5974;42.710;27.258;2022-07-12T01:18:51;2.37;;;1.27;;
12348;SDS011;5974;42.710;27.258;2022-07-12T01:21:19;2.43;;;1.20;;
12348;SDS011;5974;42.710;27.258;2022-07-12T01:23:50;1.33;;;1.20;;
12348;SDS011;5974;42.710;27.258;2022-07-12T01:26:16;2.13;;;1.30;;
12348;SDS011;5974;42.710;27.258;2022-07-12T01:28:43;3.93;;;1.33;;
12348;SDS011;5974;42.710;27.258;2022-07-12T01:31:10;1.50;;;1.40;;
12348;SDS011;5974;42.710;27.258;2022-07-12T01:33:37;4.40;;;1.43;;
12348;SDS011;5974;42.710;27.258;2022-07-12T01:36:04;1.50;;;1.40;;
12348;SDS011;5974;42.710;27.258;2022-07-12T01:38:31;1.30;;;1.30;;
12348;SDS011;5974;42.710;27.258;2022-07-12T01:40:59;2.97;;;1.47;;
12348;SDS011;5974;42.710;27.258;2022-07-12T01:43:26;1.93;;;1.20;;
12348;SDS011;5974;42.710;27.258;2022-07-12T01:45:52;1.87;;;1.20;;
12348;SDS011;5974;42.710;27.258;2022-07-12T01:48:19;3.37;;;1.40;;
12348;SDS011;5974;42.710;27.258;2022-07-12T01:50:47;1.90;;;1.30;;
12348;SDS011;5974;42.710;27.258;2022-07-12T01:53:14;2.30;;;1.30;;
12348;SDS011;5974;42.710;27.258;2022-07-12T01:55:40;1.33;;;1.33;;
12348;SDS011;5974;42.710;27.258;2022-07-12T01:58:08;2.97;;;1.30;;
12348;SDS011;5974;42.710;27.258;2022-07-12T02:00:35;3.53;;;1.40;;
12348;SDS011;5974;42.710;27.258;2022-07-12T02:03:02;2.40;;;1.30;;
12348;SDS011;5974;42.710;27.258;2022-07-12T02:05:28;1.77;;;1.30;;
12348;SDS011;5974;42.710;27.258;2022-07-12T02:07:55;1.07;;;1.07;;
12348;SDS011;5974;42.710;27.258;2022-07-12T02:10:21;1.93;;;1.00;;
12348;SDS011;5974;42.710;27.258;2022-07-12T02:12:48;3.27;;;1.10;;
12348;SDS011;5974;42.710;27.258;2022-07-12T02:15:16;3.40;;;1.27;;
12348;SDS011;5974;42.710;27.258;2022-07-12T02:17:43;4.53;;;1.10;;
12348;SDS011;5974;42.710;27.258;2022-07-12T02:20:10;2.13;;;1.10;;
12348;SDS011;5974;42.710;27.258;2022-07-12T02:22:38;1.20;;;1.10;;
12348;SDS011;5974;42.710;27.258;2022-07-12T02:25:05;1.77;;;1.20;;
12348;SDS011;5974;42.710;27.258;2022-07-12T02:27:32;1.00;;;1.00;;
12348;SDS011;5974;42.710;27.258;2022-07-12T02:29:58;2.47;;;1.00;;
12348;SDS011;5974;42.710;27.258;2022-07-12T02:32:27;3.23;;;1.00;;
12348;SDS011;5974;42.710;27.258;2022-07-12T02:34:53;2.83;;;1.30;;
12348;SDS011;5974;42.710;27.258;2022-07-12T02:37:20;3.50;;;1.03;;
12348;SDS011;5974;42.710;27.258;2022-07-12T02:39:46;1.77;;;1.27;;
12348;SDS011;5974;42.710;27.258;2022-07-12T02:42:13;5.70;;;1.33;;
12348;SDS011;5974;42.710;27.258;2022-07-12T02:44:40;4.80;;;1.40;;
12348;SDS011;5974;42.710;27.258;2022-07-12T02:47:06;2.07;;;1.70;;
12348;SDS011;5974;42.710;27.258;2022-07-12T02:49:34;2.40;;;1.30;;
12348;SDS011;5974;42.710;27.258;2022-07-12T02:52:01;1.90;;;1.20;;
12348;SDS011;5974;42.710;27.258;2022-07-12T02:54:28;1.60;;;1.37;;
12348;SDS011;5974;42.710;27.258;2022-07-12T02:56:54;1.20;;;1.13;;
12348;SDS011;5974;42.710;27.258;2022-07-12T02:59:21;2.53;;;1.20;;
12348;SDS011;5974;42.710;27.258;2022-07-12T03:01:48;2.70;;;1.20;;
12348;SDS011;5974;42.710;27.258;2022-07-12T03:04:14;2.37;;;1.10;;
12348;SDS011;5974;42.710;27.258;2022-07-12T03:06:42;1.60;;;1.37;;
12348;SDS011;5974;42.710;27.258;2022-07-12T03:09:09;1.30;;;1.20;;
12348;SDS011;5974;42.710;27.258;2022-07-12T03:11:35;2.20;;;1.37;;
12348;SDS011;5974;42.710;27.258;2022-07-12T03:14:02;1.57;;;1.43;;
12348;SDS011;5974;42.710;27.258;2022-07-12T03:16:29;1.97;;;1.10;;
12348;SDS011;5974;42.710;27.258;2022-07-12T03:18:55;1.97;;;1.50;;
12348;SDS011;5974;42.710;27.258;2022-07-12T03:21:22;1.70;;;1.40;;
12348;SDS011;5974;42.710;27.258;2022-07-12T03:23:50;2.07;;;1.47;;
12348;SDS011;5974;42.710;27.258;2022-07-12T03:26:16;1.30;;;1.20;;
12348;SDS011;5974;42.710;27.258;2022-07-12T03:28:43;2.50;;;1.20;;
12348;SDS011;5974;42.710;27.258;2022-07-12T03:31:10;4.93;;;1.40;;
12348;SDS011;5974;42.710;27.258;2022-07-12T03:33:36;2.13;;;1.60;;
12348;SDS011;5974;42.710;27.258;2022-07-12T03:36:03;3.43;;;1.33;;
12348;SDS011;5974;42.710;27.258;2022-07-12T03:38:31;1.50;;;1.40;;
12348;SDS011;5974;42.710;27.258;2022-07-12T03:41:00;4.53;;;1.63;;
12348;SDS011;5974;42.710;27.258;2022-07-12T03:43:26;3.00;;;1.40;;
12348;SDS011;5974;42.710;27.258;2022-07-12T03:45:53;1.50;;;1.40;;
12348;SDS011;5974;42.710;27.258;2022-07-12T03:48:19;2.77;;;1.50;;
12348;SDS011;5974;42.710;27.258;2022-07-12T03:50:46;2.37;;;1.50;;
12348;SDS011;5974;42.710;27.258;2022-07-12T03:53:13;2.73;;;1.50;;
12348;SDS011;5974;42.710;27.258;2022-07-12T03:55:39;2.87;;;1.20;;
12348;SDS011;5974;42.710;27.258;2022-07-12T03:58:08;2.57;;;1.37;;
12348;SDS011;5974;42.710;27.258;2022-07-12T04:00:34;1.97;;;1.30;;
12348;SDS011;5974;42.710;27.258;2022-07-12T04:03:01;2.40;;;1.30;;
12348;SDS011;5974;42.710;27.258;2022-07-12T04:05:28;4.13;;;1.40;;
12348;SDS011;5974;42.710;27.258;2022-07-12T04:07:54;8.80;;;2.00;;
12348;SDS011;5974;42.710;27.258;2022-07-12T04:10:21;1.80;;;1.27;;
12348;SDS011;5974;42.710;27.258;2022-07-12T04:12:47;4.30;;;1.63;;
12348;SDS011;5974;42.710;27.258;2022-07-12T04:15:16;5.47;;;1.70;;
12348;SDS011;5974;42.710;27.258;2022-07-12T04:17:43;3.80;;;2.60;;
12348;SDS011;5974;42.710;27.258;2022-07-12T04:20:09;7.63;;;2.43;;
12348;SDS011;5974;42.710;27.258;2022-07-12T04:22:36;3.13;;;1.77;;
12348;SDS011;5974;42.710;27.258;2022-07-12T04:25:03;0.80;;;0.80;;
12348;SDS011;5974;42.710;27.258;2022-07-12T04:27:30;13.10;;;1.67;;
12348;SDS011;5974;42.710;27.258;2022-07-12T04:29:57;2.43;;;1.07;;
12348;SDS011;5974;42.710;27.258;2022-07-12T04:32:25;1.43;;;1.20;;
12348;SDS011;5974;42.710;27.258;2022-07-12T04:34:52;2.67;;;1.10;;
12348;SDS011;5974;42.710;27.258;2022-07-12T04:37:18;8.37;;;1.90;;
12348;SDS011;5974;42.710;27.258;2022-07-12T04:39:45;4.57;;;2.60;;
12348;SDS011;5974;42.710;27.258;2022-07-12T04:42:12;7.43;;;3.53;;
12348;SDS011;5974;42.710;27.258;2022-07-12T04:44:39;8.37;;;3.57;;
12348;SDS011;5974;42.710;27.258;2022-07-12T04:47:05;4.87;;;3.40;;
12348;SDS011;5974;42.710;27.258;2022-07-12T04:49:33;5.40;;;3.20;;
12348;SDS011;5974;42.710;27.258;2022-07-12T04:52:00;3.03;;;1.90;;
12348;SDS011;5974;42.710;27.258;2022-07-12T04:54:27;1.83;;;1.70;;
12348;SDS011;5974;42.710;27.258;2022-07-12T04:56:54;1.80;;;1.70;;
12348;SDS011;5974;42.710;27.258;2022-07-12T04:59:21;5.13;;;1.90;;
12348;SDS011;5974;42.710;27.258;2022-07-12T05:01:47;2.73;;;1.77;;
12348;SDS011;5974;42.710;27.258;2022-07-12T05:04:15;2.97;;;1.60;;
12348;SDS011;5974;42.710;27.258;2022-07-12T05:06:43;4.27;;;1.70;;
12348;SDS011;5974;42.710;27.258;2022-07-12T05:09:09;1.77;;;1.57;;
12348;SDS011;5974;42.710;27.258;2022-07-12T05:11:36;4.40;;;1.53;;
12348;SDS011;5974;42.710;27.258;2022-07-12T05:14:02;3.63;;;1.30;;
12348;SDS011;5974;42.710;27.258;2022-07-12T05:16:29;3.67;;;1.40;;
12348;SDS011;5974;42.710;27.258;2022-07-12T05:18:57;2.17;;;1.07;;
12348;SDS011;5974;42.710;27.258;2022-07-12T05:21:24;1.93;;;1.20;;
12348;SDS011;5974;42.710;27.258;2022-07-12T05:23:52;3.70;;;1.17;;
12348;SDS011;5974;42.710;27.258;2022-07-12T05:26:18;2.05;;;1.30;;
12348;SDS011;5974;42.710;27.258;2022-07-12T05:28:45;1.08;;;1.00;;
12348;SDS011;5974;42.710;27.258;2022-07-12T05:31:12;2.47;;;1.35;;
12348;SDS011;5974;42.710;27.258;2022-07-12T05:33:38;2.58;;;1.40;;
12348;SDS011;5974;42.710;27.258;2022-07-12T05:36:05;3.30;;;1.10;;
12348;SDS011;5974;42.710;27.258;2022-07-12T05:38:32;1.77;;;1.20;;
12348;SDS011;5974;42.710;27.258;2022-07-12T05:41:00;1.57;;;1.20;;
12348;SDS011;5974;42.710;27.258;2022-07-12T05:43:27;1.57;;;1.10;;
12348;SDS011;5974;42.710;27.258;2022-07-12T05:45:54;1.53;;;1.20;;
12348;SDS011;5974;42.710;27.258;2022-07-12T05:48:23;3.60;;;1.50;;
12348;SDS011;5974;42.710;27.258;2022-07-12T05:50:49;2.23;;;1.47;;
12348;SDS011;5974;42.710;27.258;2022-07-12T05:53:16;1.60;;;1.23;;
12348;SDS011;5974;42.710;27.258;2022-07-12T05:55:48;4.88;;;1.48;;
12348;SDS011;5974;42.710;27.258;2022-07-12T05:58:18;3.90;;;1.77;;
12348;SDS011;5974;42.710;27.258;2022-07-12T06:00:45;1.60;;;1.50;;
12348;SDS011;5974;42.710;27.258;2022-07-12T06:03:12;2.08;;;1.70;;
12348;SDS011;5974;42.710;27.258;2022-07-12T06:05:39;1.33;;;1.10;;
12348;SDS011;5974;42.710;27.258;2022-07-12T06:08:06;6.53;;;1.60;;
12348;SDS011;5974;42.710;27.258;2022-07-12T06:10:33;2.88;;;1.40;;
12348;SDS011;5974;42.710;27.258;2022-07-12T06:13:00;2.70;;;1.40;;
12348;SDS011;5974;42.710;27.258;2022-07-12T06:15:28;2.97;;;1.50;;
12348;SDS011;5974;42.710;27.258;2022-07-12T06:17:54;1.33;;;1.30;;
12348;SDS011;5974;42.710;27.258;2022-07-12T06:20:21;1.30;;;1.20;;
12348;SDS011;5974;42.710;27.258;2022-07-12T06:22:47;5.80;;;1.45;;
12348;SDS011;5974;42.710;27.258;2022-07-12T06:25:14;1.38;;;1.30;;
12348;SDS011;5974;42.710;27.258;2022-07-12T06:27:40;1.52;;;1.42;;
12348;SDS011;5974;42.710;27.258;2022-07-12T06:30:07;1.65;;;1.20;;
12348;SDS011;5974;42.710;27.258;2022-07-12T06:32:35;2.88;;;1.17;;
12348;SDS011;5974;42.710;27.258;2022-07-12T06:35:02;3.17;;;1.30;;
12348;SDS011;5974;42.710;27.258;2022-07-12T06:37:29;2.90;;;1.30;;
12348;SDS011;5974;42.710;27.258;2022-07-12T06:39:55;2.45;;;1.40;;
12348;SDS011;5974;42.710;27.258;2022-07-12T06:42:22;1.63;;;1.30;;
12348;SDS011;5974;42.710;27.258;2022-07-12T06:44:49;1.63;;;1.08;;
12348;SDS011;5974;42.710;27.258;2022-07-12T06:47:15;0.80;;;0.80;;
12348;SDS011;5974;42.710;27.258;2022-07-12T06:49:43;3.47;;;1.00;;
12348;SDS011;5974;42.710;27.258;2022-07-12T06:52:10;1.13;;;1.00;;
12348;SDS011;5974;42.710;27.258;2022-07-12T06:54:37;1.00;;;1.00;;
12348;SDS011;5974;42.710;27.258;2022-07-12T06:57:04;2.17;;;1.10;;
12348;SDS011;5974;42.710;27.258;2022-07-12T06:59:31;2.08;;;1.00;;
12348;SDS011;5974;42.710;27.258;2022-07-12T07:01:57;1.30;;;1.20;;
12348;SDS011;5974;42.710;27.258;2022-07-12T07:04:24;2.35;;;1.10;;
12348;SDS011;5974;42.710;27.258;2022-07-12T07:06:52;2.67;;;1.27;;
12348;SDS011;5974;42.710;27.258;2022-07-12T07:09:19;2.35;;;1.20;;
12348;SDS011;5974;42.710;27.258;2022-07-12T07:11:45;1.85;;;1.23;;
12348;SDS011;5974;42.710;27.258;2022-07-12T07:14:12;1.33;;;1.23;;
12348;SDS011;5974;42.710;27.258;2022-07-12T07:16:39;1.60;;;1.00;;
12348;SDS011;5974;42.710;27.258;2022-07-12T07:19:05;1.70;;;1.00;;
12348;SDS011;5974;42.710;27.258;2022-07-12T07:21:32;2.95;;;1.33;;
12348;SDS011;5974;42.710;27.258;2022-07-12T07:24:00;1.10;;;1.10;;
12348;SDS011;5974;42.710;27.258;2022-07-12T07:26:26;1.20;;;1.10;;
12348;SDS011;5974;42.710;27.258;2022-07-12T07:28:53;1.20;;;1.10;;
12348;SDS011;5974;42.710;27.258;2022-07-12T07:31:37;1.67;;;1.15;;
12348;SDS011;5974;42.710;27.258;2022-07-12T07:34:03;0.95;;;0.95;;
12348;SDS011;5974;42.710;27.258;2022-07-12T07:36:30;1.73;;;1.25;;
12348;SDS011;5974;42.710;27.258;2022-07-12T07:38:57;0.90;;;0.90;;
12348;SDS011;5974;42.710;27.258;2022-07-12T07:41:25;2.38;;;1.27;;
12348;SDS011;5974;42.710;27.258;2022-07-12T07:43:52;2.58;;;1.35;;
12348;SDS011;5974;42.710;27.258;2022-07-12T07:46:19;1.17;;;1.10;;
12348;SDS011;5974;42.710;27.258;2022-07-12T07:48:45;1.95;;;1.00;;
12348;SDS011;5974;42.710;27.258;2022-07-12T07:51:12;2.42;;;1.40;;
12348;SDS011;5974;42.710;27.258;2022-07-12T07:53:39;1.00;;;1.00;;
12348;SDS011;5974;42.710;27.258;2022-07-12T07:56:05;4.43;;;1.10;;
12348;SDS011;5974;42.710;27.258;2022-07-12T07:58:34;2.00;;;1.08;;
12348;SDS011;5974;42.710;27.258;2022-07-12T08:01:00;1.52;;;1.10;;
12348;SDS011;5974;42.710;27.258;2022-07-12T08:03:27;3.03;;;1.23;;
12348;SDS011;5974;42.710;27.258;2022-07-12T08:05:54;1.65;;;0.90;;
12348;SDS011;5974;42.710;27.258;2022-07-12T08:08:22;1.48;;;1.10;;
12348;SDS011;5974;42.710;27.258;2022-07-12T08:10:49;2.45;;;1.00;;
12348;SDS011;5974;42.710;27.258;2022-07-12T08:13:16;2.40;;;1.30;;
12348;SDS011;5974;42.710;27.258;2022-07-12T08:15:44;1.92;;;1.05;;
12348;SDS011;5974;42.710;27.258;2022-07-12T08:18:10;2.27;;;1.03;;
12348;SDS011;5974;42.710;27.258;2022-07-12T08:20:37;4.40;;;1.00;;
12348;SDS011;5974;42.710;27.258;2022-07-12T08:23:03;7.33;;;1.40;;
12348;SDS011;5974;42.710;27.258;2022-07-12T08:25:30;2.80;;;1.30;;
12348;SDS011;5974;42.710;27.258;2022-07-12T08:27:57;1.53;;;1.10;;
12348;SDS011;5974;42.710;27.258;2022-07-12T08:30:23;3.03;;;0.90;;
12348;SDS011;5974;42.710;27.258;2022-07-12T08:32:52;2.43;;;0.90;;
12348;SDS011;5974;42.710;27.258;2022-07-12T08:35:20;3.60;;;0.90;;
12348;SDS011;5974;42.710;27.258;2022-07-12T08:37:46;1.07;;;0.97;;
12348;SDS011;5974;42.710;27.258;2022-07-12T08:40:13;3.37;;;1.20;;
12348;SDS011;5974;42.710;27.258;2022-07-12T08:42:40;1.27;;;1.17;;
12348;SDS011;5974;42.710;27.258;2022-07-12T08:45:07;1.27;;;1.10;;
12348;SDS011;5974;42.710;27.258;2022-07-12T08:47:34;0.97;;;0.97;;
12348;SDS011;5974;42.710;27.258;2022-07-12T08:50:12;1.00;;;1.00;;
12348;SDS011;5974;42.710;27.258;2022-07-12T08:52:39;1.47;;;1.10;;
12348;SDS011;5974;42.710;27.258;2022-07-12T08:55:16;2.50;;;1.10;;
12348;SDS011;5974;42.710;27.258;2022-07-12T08:57:43;1.10;;;1.10;;
12348;SDS011;5974;42.710;27.258;2022-07-12T09:00:11;2.23;;;2.03;;
12348;SDS011;5974;42.710;27.258;2022-07-12T09:02:47;2.63;;;1.57;;
12348;SDS011;5974;42.710;27.258;2022-07-12T09:05:15;1.20;;;1.10;;
12348;SDS011;5974;42.710;27.258;2022-07-12T09:07:42;1.87;;;1.10;;
12348;SDS011;5974;42.710;27.258;2022-07-12T09:10:10;2.60;;;1.97;;
12348;SDS011;5974;42.710;27.258;2022-07-12T09:12:38;1.10;;;0.90;;
12348;SDS011;5974;42.710;27.258;2022-07-12T09:15:12;0.80;;;0.80;;
12348;SDS011;5974;42.710;27.258;2022-07-12T09:17:39;2.00;;;1.00;;
12348;SDS011;5974;42.710;27.258;2022-07-12T09:20:08;2.03;;;1.93;;
12348;SDS011;5974;42.710;27.258;2022-07-12T09:22:37;2.67;;;1.30;;
12348;SDS011;5974;42.710;27.258;2022-07-12T09:25:13;1.63;;;1.00;;
12348;SDS011;5974;42.710;27.258;2022-07-12T09:27:46;1.20;;;1.10;;
12348;SDS011;5974;42.710;27.258;2022-07-12T09:30:13;2.87;;;1.13;;
12348;SDS011;5974;42.710;27.258;2022-07-12T09:32:48;4.93;;;1.40;;
12348;SDS011;5974;42.710;27.258;2022-07-12T09:35:32;24.30;;;3.50;;
12348;SDS011;5974;42.710;27.258;2022-07-12T09:38:18;10.90;;;1.97;;
12348;SDS011;5974;42.710;27.258;2022-07-12T09:40:44;2.40;;;1.20;;
12348;SDS011;5974;42.710;27.258;2022-07-12T09:43:12;1.60;;;1.00;;
12348;SDS011;5974;42.710;27.258;2022-07-12T09:45:39;5.47;;;1.10;;
12348;SDS011;5974;42.710;27.258;2022-07-12T09:48:06;2.53;;;1.17;;
12348;SDS011;5974;42.710;27.258;2022-07-12T09:50:34;3.80;;;1.53;;
12348;SDS011;5974;42.710;27.258;2022-07-12T09:53:01;5.37;;;2.20;;
12348;SDS011;5974;42.710;27.258;2022-07-12T09:55:30;1.83;;;1.10;;
12348;SDS011;5974;42.710;27.258;2022-07-12T09:58:00;2.80;;;0.93;;
12348;SDS011;5974;42.710;27.258;2022-07-12T10:00:28;3.27;;;1.20;;
12348;SDS011;5974;42.710;27.258;2022-07-12T10:02:55;3.13;;;1.10;;
12348;SDS011;5974;42.710;27.258;2022-07-12T10:05:22;1.83;;;1.13;;
12348;SDS011;5974;42.710;27.258;2022-07-12T10:07:50;2.70;;;1.10;;
12348;SDS011;5974;42.710;27.258;2022-07-12T10:10:17;1.77;;;1.10;;
12348;SDS011;5974;42.710;27.258;2022-07-12T10:12:45;1.50;;;1.10;;
12348;SDS011;5974;42.710;27.258;2022-07-12T10:15:14;1.23;;;1.17;;
12348;SDS011;5974;42.710;27.258;2022-07-12T10:17:41;2.40;;;1.17;;
12348;SDS011;5974;42.710;27.258;2022-07-12T10:20:14;1.73;;;1.00;;
12348;SDS011;5974;42.710;27.258;2022-07-12T10:22:41;1.47;;;1.10;;
12348;SDS011;5974;42.710;27.258;2022-07-12T10:27:50;4.60;;;0.90;;
12348;SDS011;5974;42.710;27.258;2022-07-12T10:30:21;1.67;;;1.20;;
12348;SDS011;5974;42.710;27.258;2022-07-12T10:32:48;4.10;;;1.30;;
12348;SDS011;5974;42.710;27.258;2022-07-12T10:35:21;2.50;;;1.20;;
12348;SDS011;5974;42.710;27.258;2022-07-12T10:40:33;1.00;;;0.90;;
12348;SDS011;5974;42.710;27.258;2022-07-12T10:43:14;1.63;;;1.10;;
12348;SDS011;5974;42.710;27.258;2022-07-12T10:45:41;1.53;;;1.17;;
12348;SDS011;5974;42.710;27.258;2022-07-12T10:48:09;1.43;;;1.20;;
12348;SDS011;5974;42.710;27.258;2022-07-12T10:50:51;2.67;;;1.20;;
12348;SDS011;5974;42.710;27.258;2022-07-12T10:53:22;2.47;;;1.00;;
12348;SDS011;5974;42.710;27.258;2022-07-12T10:56:11;1.10;;;1.00;;
12348;SDS011;5974;42.710;27.258;2022-07-12T10:58:41;1.77;;;1.10;;
12348;SDS011;5974;42.710;27.258;2022-07-12T11:01:09;2.83;;;1.10;;
12348;SDS011;5974;42.710;27.258;2022-07-12T11:03:39;2.67;;;1.30;;
12348;SDS011;5974;42.710;27.258;2022-07-12T11:06:07;1.00;;;1.00;;
12348;SDS011;5974;42.710;27.258;2022-07-12T11:08:46;0.90;;;0.90;;
12348;SDS011;5974;42.710;27.258;2022-07-12T11:11:13;2.90;;;1.20;;
12348;SDS011;5974;42.710;27.258;2022-07-12T11:13:41;1.30;;;1.20;;
12348;SDS011;5974;42.710;27.258;2022-07-12T11:16:07;1.23;;;1.10;;
12348;SDS011;5974;42.710;27.258;2022-07-12T11:18:35;1.83;;;1.10;;
12348;SDS011;5974;42.710;27.258;2022-07-12T11:21:02;1.27;;;1.10;;
12348;SDS011;5974;42.710;27.258;2022-07-12T11:23:29;1.83;;;1.10;;
12348;SDS011;5974;42.710;27.258;2022-07-12T11:25:56;1.17;;;1.00;;
12348;SDS011;5974;42.710;27.258;2022-07-12T11:28:23;1.40;;;1.30;;
12348;SDS011;5974;42.710;27.258;2022-07-12T11:30:51;1.50;;;1.00;;
12348;SDS011;5974;42.710;27.258;2022-07-12T11:33:18;1.13;;;1.03;;
12348;SDS011;5974;42.710;27.258;2022-07-12T11:35:45;1.10;;;1.10;;
12348;SDS011;5974;42.710;27.258;2022-07-12T11:38:12;2.10;;;0.93;;
12348;SDS011;5974;42.710;27.258;2022-07-12T11:40:39;4.00;;;1.40;;
12348;SDS011;5974;42.710;27.258;2022-07-12T11:43:06;0.90;;;0.90;;
12348;SDS011;5974;42.710;27.258;2022-07-12T11:45:33;1.07;;;1.00;;
12348;SDS011;5974;42.710;27.258;2022-07-12T11:48:01;2.17;;;1.33;;
12348;SDS011;5974;42.710;27.258;2022-07-12T11:50:31;1.13;;;1.10;;
12348;SDS011;5974;42.710;27.258;2022-07-12T11:52:59;4.93;;;1.10;;
12348;SDS011;5974;42.710;27.258;2022-07-12T11:55:26;1.23;;;1.10;;
12348;SDS011;5974;42.710;27.258;2022-07-12T11:58:02;1.00;;;1.00;;
12348;SDS011;5974;42.710;27.258;2022-07-12T12:00:29;1.00;;;1.00;;
12348;SDS011;5974;42.710;27.258;2022-07-12T12:02:56;1.40;;;1.20;;
12348;SDS011;5974;42.710;27.258;2022-07-12T12:05:24;1.53;;;1.00;;
12348;SDS011;5974;42.710;27.258;2022-07-12T12:07:51;1.30;;;1.20;;
12348;SDS011;5974;42.710;27.258;2022-07-12T12:10:18;1.63;;;1.40;;
12348;SDS011;5974;42.710;27.258;2022-07-12T12:12:45;1.30;;;1.30;;
12348;SDS011;5974;42.710;27.258;2022-07-12T12:15:12;1.27;;;1.27;;
12348;SDS011;5974;42.710;27.258;2022-07-12T12:17:43;1.53;;;1.43;;
12348;SDS011;5974;42.710;27.258;2022-07-12T12:20:13;1.57;;;1.20;;
12348;SDS011;5974;42.710;27.258;2022-07-12T12:22:42;1.67;;;1.23;;
12348;SDS011;5974;42.710;27.258;2022-07-12T12:25:09;2.13;;;1.30;;
12348;SDS011;5974;42.710;27.258;2022-07-12T12:27:43;1.17;;;1.17;;
12348;SDS011;5974;42.710;27.258;2022-07-12T12:30:10;1.40;;;1.20;;
12348;SDS011;5974;42.710;27.258;2022-07-12T12:32:46;2.47;;;1.30;;
12348;SDS011;5974;42.710;27.258;2022-07-12T12:35:14;1.50;;;1.40;;
12348;SDS011;5974;42.710;27.258;2022-07-12T12:37:40;3.27;;;1.50;;
12348;SDS011;5974;42.710;27.258;2022-07-12T12:40:09;1.27;;;1.17;;
12348;SDS011;5974;42.710;27.258;2022-07-12T12:42:36;2.43;;;1.23;;
12348;SDS011;5974;42.710;27.258;2022-07-12T12:45:03;3.03;;;1.50;;
12348;SDS011;5974;42.710;27.258;2022-07-12T12:47:30;2.20;;;1.30;;
12348;SDS011;5974;42.710;27.258;2022-07-12T12:49:56;4.90;;;1.27;;
12348;SDS011;5974;42.710;27.258;2022-07-12T12:52:25;4.33;;;1.57;;
12348;SDS011;5974;42.710;27.258;2022-07-12T12:54:52;4.20;;;1.30;;
12348;SDS011;5974;42.710;27.258;2022-07-12T12:57:20;7.40;;;1.43;;
12348;SDS011;5974;42.710;27.258;2022-07-12T12:59:49;2.30;;;1.60;;
12348;SDS011;5974;42.710;27.258;2022-07-12T13:02:15;2.20;;;1.27;;
12348;SDS011;5974;42.710;27.258;2022-07-12T13:04:42;1.27;;;1.17;;
12348;SDS011;5974;42.710;27.258;2022-07-12T13:07:09;2.20;;;1.30;;
12348;SDS011;5974;42.710;27.258;2022-07-12T13:09:35;1.90;;;1.30;;
12348;SDS011;5974;42.710;27.258;2022-07-12T13:12:03;1.53;;;1.10;;
12348;SDS011;5974;42.710;27.258;2022-07-12T13:14:31;2.40;;;1.10;;
12348;SDS011;5974;42.710;27.258;2022-07-12T13:16:58;1.53;;;1.10;;
12348;SDS011;5974;42.710;27.258;2022-07-12T13:19:24;1.50;;;1.33;;
12348;SDS011;5974;42.710;27.258;2022-07-12T13:21:51;4.53;;;1.47;;
12348;SDS011;5974;42.710;27.258;2022-07-12T13:24:18;1.93;;;1.30;;
12348;SDS011;5974;42.710;27.258;2022-07-12T13:26:44;1.80;;;1.23;;
12348;SDS011;5974;42.710;27.258;2022-07-12T13:29:11;1.43;;;1.30;;
12348;SDS011;5974;42.710;27.258;2022-07-12T13:31:40;1.30;;;1.20;;
12348;SDS011;5974;42.710;27.258;2022-07-12T13:34:06;1.50;;;1.17;;
12348;SDS011;5974;42.710;27.258;2022-07-12T13:36:33;2.40;;;1.20;;
12348;SDS011;5974;42.710;27.258;2022-07-12T13:38:59;3.27;;;1.33;;
12348;SDS011;5974;42.710;27.258;2022-07-12T13:41:46;1.30;;;1.20;;
12348;SDS011;5974;42.710;27.258;2022-07-12T13:44:13;1.50;;;1.40;;
12348;SDS011;5974;42.710;27.258;2022-07-12T13:46:41;1.20;;;1.07;;
12348;SDS011;5974;42.710;27.258;2022-07-12T13:49:07;4.33;;;1.30;;
12348;SDS011;5974;42.710;27.258;2022-07-12T13:51:34;1.20;;;1.20;;
12348;SDS011;5974;42.710;27.258;2022-07-12T13:54:00;1.97;;;1.40;;
12348;SDS011;5974;42.710;27.258;2022-07-12T13:56:27;1.43;;;1.10;;
12348;SDS011;5974;42.710;27.258;2022-07-12T13:58:54;1.37;;;1.27;;
12348;SDS011;5974;42.710;27.258;2022-07-12T14:01:21;1.73;;;1.20;;
12348;SDS011;5974;42.710;27.258;2022-07-12T14:03:49;1.30;;;1.20;;
12348;SDS011;5974;42.710;27.258;2022-07-12T14:06:15;7.07;;;1.27;;
12348;SDS011;5974;42.710;27.258;2022-07-12T14:08:42;1.67;;;1.37;;
12348;SDS011;5974;42.710;27.258;2022-07-12T14:11:08;2.50;;;1.10;;
12348;SDS011;5974;42.710;27.258;2022-07-12T14:13:35;2.87;;;1.33;;
12348;SDS011;5974;42.710;27.258;2022-07-12T14:16:02;1.27;;;1.20;;
12348;SDS011;5974;42.710;27.258;2022-07-12T14:18:28;1.40;;;1.30;;
12348;SDS011;5974;42.710;27.258;2022-07-12T14:20:56;1.63;;;1.50;;
12348;SDS011;5974;42.710;27.258;2022-07-12T14:23:23;3.20;;;1.57;;
12348;SDS011;5974;42.710;27.258;2022-07-12T14:25:50;2.20;;;1.60;;
12348;SDS011;5974;42.710;27.258;2022-07-12T14:28:17;2.03;;;1.30;;
12348;SDS011;5974;42.710;27.258;2022-07-12T14:30:44;1.57;;;1.47;;
12348;SDS011;5974;42.710;27.258;2022-07-12T14:33:10;1.50;;;1.40;;
12348;SDS011;5974;42.710;27.258;2022-07-12T14:35:37;1.97;;;1.80;;
12348;SDS011;5974;42.710;27.258;2022-07-12T14:38:05;2.83;;;1.30;;
12348;SDS011;5974;42.710;27.258;2022-07-12T14:40:31;1.20;;;1.20;;
12348;SDS011;5974;42.710;27.258;2022-07-12T14:42:58;1.43;;;1.33;;
12348;SDS011;5974;42.710;27.258;2022-07-12T14:45:25;1.27;;;1.20;;
12348;SDS011;5974;42.710;27.258;2022-07-12T14:47:52;1.67;;;1.17;;
12348;SDS011;5974;42.710;27.258;2022-07-12T14:50:18;2.87;;;1.30;;
12348;SDS011;5974;42.710;27.258;2022-07-12T14:52:45;2.43;;;1.40;;
12348;SDS011;5974;42.710;27.258;2022-07-12T14:55:13;3.03;;;1.40;;